Guadalajara, México

5:09 PM CDT en Septiembre 21, 2014 (GMT -0500)
Arcos Vallarta | Change Station
CLOSE
Current Station
Estación meteorológica personal
Location: Guadalajara, Jalisco
Altura: 5225 ft
Estaciones meteorológicas cercanas

Alt 5225 ft 20.68 °N, 103.38 °W | Updated 5 minutes ago

Mostly Cloudy
Muy nublado
79.4 ° F
Sensación térmica 81 ° F
N
0.0
Viento Variable Viento desde ESE
Gusts 3.0 mph

Hoy
Alta -- | Baja -- ° F
--% Posibilidad de precipitaciones
Ayer
Alta -- | Baja -- ° F
Precip. -- pul
7:42 AM 7:50 PM
Creciente menguante, 5% visible
Presión 30.07 pul
Visibilidad 10.0 Millas
Nubes Baja 3000 ft
Nubes dispersas 8000 ft
Muy nublado 30000 ft
Índice de calor 81 ° F
Punto de rocío 62 ° F
Humedad 56%
Precipitaciones -999.00 pul
Espesor de la nieve No disponible.
UV 3 de una escala de 12
Polen No disponible.
Calidad del aire No disponible.
Flu Activity No disponible.
METAR MMGL 212154Z 00000KT 10SM FEW030TCU SCT080 BKN300 27/13 A3007 RMK 8/238 ISOL CC

More Conditions Fewer Conditions

Presión 30.07 pul
Visibilidad 10.0 Millas
Nubes Baja 3000 ft
Nubes dispersas 8000 ft
Muy nublado 30000 ft
Índice de calor 81 ° F
Punto de rocío 62 ° F
Humedad 56%
Precipitaciones -999.00 pul
Espesor de la nieve No disponible.
UV 3 de una escala de 12
Polen No disponible.
Calidad del aire No disponible.
Flu Activity No disponible.
METAR MMGL 212154Z 00000KT 10SM FEW030TCU SCT080 BKN300 27/13 A3007 RMK 8/238 ISOL CC

More Conditions Fewer Conditions

10-Day Weather Forecast

Almanac

Astronomía

Sep. 21, 2014 Salida Puesta
Hora real 7:42 AM CDT 7:50 PM CDT
Crepúsculo civil 7:20 AM CDT 8:12 PM CDT
Crepúsculo náutico 6:54 AM CDT 8:38 PM CDT
Crepúsculo astronómico 6:28 AM CDT 9:04 PM CDT
Luna 5:32 AM CDT 6:16 PM CDT
Horas de luz 12h 52m
Horas de luz
12h 08m
Tomorrow will be 1m 11s shorter.
Creciente menguante, 5% of the Moon is Illuminated
Hoy
Creciente menguante
Sep 24
Nueva
Oct 1
Cuarto creciente
Oct 8
Luna llena
Oct 15
Cuarto menguante

Extremos de hoy

Máximos del país Bajas del país

Community

WunderPhotos

Upload Photos

1,755,269 ¡fotos cargadas!

WunderBlogs® & News

Nearby

Calidad del aire

Not available.

Grosos de nieve

Not available.

Actividad de terremotos

Ciudad Distance Mag. Tiempo y dato
No hay informes recientes de la actividad sísmica.
Magnitud mínima muestra es 2,5.

Temperaturas de aguas costeras

Lugar Temperatura
Sin partes meteorológicos de las estaciones

Estaciones meteorológicas cercanas